sensor_id;sensor_type;location;lat;lon;timestamp;temperature;humidity
19279;DHT22;9773;47.062;15.446;2022-09-09T00:01:33;17.30;99.90
19279;DHT22;9773;47.062;15.446;2022-09-09T00:04:15;17.20;99.90
19279;DHT22;9773;47.062;15.446;2022-09-09T00:07:03;17.10;99.90
19279;DHT22;9773;47.062;15.446;2022-09-09T00:09:45;17.10;99.90
19279;DHT22;9773;47.062;15.446;2022-09-09T00:15:13;17.00;99.90
19279;DHT22;9773;47.062;15.446;2022-09-09T00:17:52;16.80;99.90
19279;DHT22;9773;47.062;15.446;2022-09-09T00:20:28;16.80;99.90
19279;DHT22;9773;47.062;15.446;2022-09-09T00:23:10;16.80;99.90
19279;DHT22;9773;47.062;15.446;2022-09-09T00:25:48;16.70;99.90
19279;DHT22;9773;47.062;15.446;2022-09-09T00:28:19;16.70;99.90
19279;DHT22;9773;47.062;15.446;2022-09-09T00:30:46;16.70;99.90
19279;DHT22;9773;47.062;15.446;2022-09-09T00:33:17;16.70;99.90
19279;DHT22;9773;47.062;15.446;2022-09-09T00:35:51;16.70;99.90
19279;DHT22;9773;47.062;15.446;2022-09-09T00:38:25;16.70;99.90
19279;DHT22;9773;47.062;15.446;2022-09-09T00:41:01;16.70;99.90
19279;DHT22;9773;47.062;15.446;2022-09-09T00:43:37;16.60;99.90
19279;DHT22;9773;47.062;15.446;2022-09-09T00:54:40;16.40;99.90
19279;DHT22;9773;47.062;15.446;2022-09-09T00:57:22;16.50;99.90
19279;DHT22;9773;47.062;15.446;2022-09-09T01:11:10;16.40;99.90
19279;DHT22;9773;47.062;15.446;2022-09-09T01:13:42;16.40;99.90
19279;DHT22;9773;47.062;15.446;2022-09-09T01:16:10;16.30;99.90
19279;DHT22;9773;47.062;15.446;2022-09-09T01:18:44;16.30;99.90
19279;DHT22;9773;47.062;15.446;2022-09-09T01:21:33;16.40;99.90
19279;DHT22;9773;47.062;15.446;2022-09-09T01:26:45;16.40;99.90
19279;DHT22;9773;47.062;15.446;2022-09-09T01:29:14;16.40;99.90
19279;DHT22;9773;47.062;15.446;2022-09-09T01:34:18;16.50;99.90
19279;DHT22;9773;47.062;15.446;2022-09-09T01:39:18;16.50;99.90
19279;DHT22;9773;47.062;15.446;2022-09-09T01:41:44;16.40;99.90
19279;DHT22;9773;47.062;15.446;2022-09-09T01:44:11;16.50;99.90
19279;DHT22;9773;47.062;15.446;2022-09-09T01:46:37;16.50;99.90
19279;DHT22;9773;47.062;15.446;2022-09-09T01:49:05;16.40;99.90
19279;DHT22;9773;47.062;15.446;2022-09-09T01:51:33;16.40;99.90
19279;DHT22;9773;47.062;15.446;2022-09-09T01:53:59;16.30;99.90
19279;DHT22;9773;47.062;15.446;2022-09-09T01:56:47;16.20;99.90
19279;DHT22;9773;47.062;15.446;2022-09-09T01:59:18;16.20;99.90
19279;DHT22;9773;47.062;15.446;2022-09-09T02:02:10;16.10;99.90
19279;DHT22;9773;47.062;15.446;2022-09-09T02:04:43;16.20;99.90
19279;DHT22;9773;47.062;15.446;2022-09-09T02:07:39;16.30;99.90
19279;DHT22;9773;47.062;15.446;2022-09-09T02:10:24;16.20;99.90
19279;DHT22;9773;47.062;15.446;2022-09-09T02:12:59;16.20;99.90
19279;DHT22;9773;47.062;15.446;2022-09-09T02:15:38;16.20;99.90
19279;DHT22;9773;47.062;15.446;2022-09-09T02:18:08;16.20;99.90
19279;DHT22;9773;47.062;15.446;2022-09-09T02:20:37;16.30;99.90
19279;DHT22;9773;47.062;15.446;2022-09-09T02:23:05;16.30;99.90
19279;DHT22;9773;47.062;15.446;2022-09-09T02:25:35;16.30;99.90
19279;DHT22;9773;47.062;15.446;2022-09-09T02:28:04;16.30;99.90
19279;DHT22;9773;47.062;15.446;2022-09-09T02:30:33;16.30;99.90
19279;DHT22;9773;47.062;15.446;2022-09-09T02:33:02;16.30;99.90
19279;DHT22;9773;47.062;15.446;2022-09-09T02:35:30;16.30;99.90
19279;DHT22;9773;47.062;15.446;2022-09-09T02:37:59;16.30;99.90
19279;DHT22;9773;47.062;15.446;2022-09-09T02:40:27;16.30;99.90
19279;DHT22;9773;47.062;15.446;2022-09-09T02:42:54;16.40;99.90
19279;DHT22;9773;47.062;15.446;2022-09-09T02:45:24;16.30;99.90
19279;DHT22;9773;47.062;15.446;2022-09-09T02:50:36;16.20;99.90
19279;DHT22;9773;47.062;15.446;2022-09-09T02:55:41;16.10;99.90
19279;DHT22;9773;47.062;15.446;2022-09-09T02:58:11;16.10;99.90
19279;DHT22;9773;47.062;15.446;2022-09-09T03:00:39;16.10;99.90
19279;DHT22;9773;47.062;15.446;2022-09-09T03:03:06;16.20;99.90
19279;DHT22;9773;47.062;15.446;2022-09-09T03:05:34;16.20;99.90
19279;DHT22;9773;47.062;15.446;2022-09-09T03:08:01;16.20;99.90
19279;DHT22;9773;47.062;15.446;2022-09-09T03:10:27;16.30;99.90
19279;DHT22;9773;47.062;15.446;2022-09-09T03:12:54;16.30;99.90
19279;DHT22;9773;47.062;15.446;2022-09-09T03:15:20;16.40;99.90
19279;DHT22;9773;47.062;15.446;2022-09-09T03:17:46;16.30;99.90
19279;DHT22;9773;47.062;15.446;2022-09-09T03:20:13;16.40;99.90
19279;DHT22;9773;47.062;15.446;2022-09-09T03:22:38;16.40;99.90
19279;DHT22;9773;47.062;15.446;2022-09-09T03:25:05;16.40;99.90
19279;DHT22;9773;47.062;15.446;2022-09-09T03:27:31;16.40;99.90
19279;DHT22;9773;47.062;15.446;2022-09-09T03:29:57;16.30;99.90
19279;DHT22;9773;47.062;15.446;2022-09-09T03:32:23;16.20;99.90
19279;DHT22;9773;47.062;15.446;2022-09-09T03:34:51;16.20;99.90
19279;DHT22;9773;47.062;15.446;2022-09-09T03:37:18;16.20;99.90
19279;DHT22;9773;47.062;15.446;2022-09-09T03:39:44;16.10;99.90
19279;DHT22;9773;47.062;15.446;2022-09-09T03:42:12;16.10;99.90
19279;DHT22;9773;47.062;15.446;2022-09-09T03:44:37;16.00;99.90
19279;DHT22;9773;47.062;15.446;2022-09-09T03:47:03;16.00;99.90
19279;DHT22;9773;47.062;15.446;2022-09-09T03:49:29;16.10;99.90
19279;DHT22;9773;47.062;15.446;2022-09-09T03:51:56;16.10;99.90
19279;DHT22;9773;47.062;15.446;2022-09-09T03:54:23;16.00;99.90
19279;DHT22;9773;47.062;15.446;2022-09-09T03:56:49;15.90;99.90
19279;DHT22;9773;47.062;15.446;2022-09-09T03:59:15;16.00;99.90
19279;DHT22;9773;47.062;15.446;2022-09-09T04:01:41;16.00;99.90
19279;DHT22;9773;47.062;15.446;2022-09-09T04:04:07;16.00;99.90
19279;DHT22;9773;47.062;15.446;2022-09-09T04:06:33;16.10;99.90
19279;DHT22;9773;47.062;15.446;2022-09-09T04:08:59;16.10;99.90
19279;DHT22;9773;47.062;15.446;2022-09-09T04:11:27;16.00;99.90
19279;DHT22;9773;47.062;15.446;2022-09-09T04:13:53;16.10;99.90
19279;DHT22;9773;47.062;15.446;2022-09-09T04:16:19;16.00;99.90
19279;DHT22;9773;47.062;15.446;2022-09-09T04:18:45;16.00;99.90
19279;DHT22;9773;47.062;15.446;2022-09-09T04:21:11;15.90;99.90
19279;DHT22;9773;47.062;15.446;2022-09-09T04:23:38;15.90;99.90
19279;DHT22;9773;47.062;15.446;2022-09-09T04:26:05;15.90;99.90
19279;DHT22;9773;47.062;15.446;2022-09-09T04:28:33;15.90;99.90
19279;DHT22;9773;47.062;15.446;2022-09-09T04:31:12;15.90;99.90
19279;DHT22;9773;47.062;15.446;2022-09-09T04:33:40;15.80;99.90
19279;DHT22;9773;47.062;15.446;2022-09-09T04:36:06;15.80;99.90
19279;DHT22;9773;47.062;15.446;2022-09-09T04:38:32;15.80;99.90
19279;DHT22;9773;47.062;15.446;2022-09-09T04:40:58;15.90;99.90
19279;DHT22;9773;47.062;15.446;2022-09-09T04:43:24;16.00;99.90
19279;DHT22;9773;47.062;15.446;2022-09-09T04:45:51;16.00;99.90
19279;DHT22;9773;47.062;15.446;2022-09-09T04:48:18;16.00;99.90
19279;DHT22;9773;47.062;15.446;2022-09-09T04:50:43;16.00;99.90
19279;DHT22;9773;47.062;15.446;2022-09-09T04:53:09;16.10;99.90
19279;DHT22;9773;47.062;15.446;2022-09-09T04:55:35;16.10;99.90
19279;DHT22;9773;47.062;15.446;2022-09-09T04:58:08;16.00;99.90
19279;DHT22;9773;47.062;15.446;2022-09-09T05:00:35;16.00;99.90
19279;DHT22;9773;47.062;15.446;2022-09-09T05:03:04;16.00;99.90
19279;DHT22;9773;47.062;15.446;2022-09-09T05:05:32;15.90;99.90
19279;DHT22;9773;47.062;15.446;2022-09-09T05:08:04;15.90;99.90
19279;DHT22;9773;47.062;15.446;2022-09-09T05:10:30;16.00;99.90
19279;DHT22;9773;47.062;15.446;2022-09-09T05:12:56;16.00;99.90
19279;DHT22;9773;47.062;15.446;2022-09-09T05:15:22;16.00;99.90
19279;DHT22;9773;47.062;15.446;2022-09-09T05:17:47;16.10;99.90
19279;DHT22;9773;47.062;15.446;2022-09-09T05:20:13;16.10;99.90
19279;DHT22;9773;47.062;15.446;2022-09-09T05:22:39;16.20;99.90
19279;DHT22;9773;47.062;15.446;2022-09-09T05:25:06;16.20;99.90
19279;DHT22;9773;47.062;15.446;2022-09-09T05:27:34;16.30;99.90
19279;DHT22;9773;47.062;15.446;2022-09-09T05:29:59;16.30;99.90
19279;DHT22;9773;47.062;15.446;2022-09-09T05:32:25;16.40;99.90
19279;DHT22;9773;47.062;15.446;2022-09-09T05:34:51;16.50;99.90
19279;DHT22;9773;47.062;15.446;2022-09-09T05:37:18;16.50;99.90
19279;DHT22;9773;47.062;15.446;2022-09-09T05:39:44;16.50;99.90
19279;DHT22;9773;47.062;15.446;2022-09-09T05:42:10;16.60;99.90
19279;DHT22;9773;47.062;15.446;2022-09-09T05:44:35;16.70;99.90
19279;DHT22;9773;47.062;15.446;2022-09-09T05:47:02;16.70;99.90
19279;DHT22;9773;47.062;15.446;2022-09-09T05:49:28;16.80;99.90
19279;DHT22;9773;47.062;15.446;2022-09-09T05:51:54;17.00;99.90
19279;DHT22;9773;47.062;15.446;2022-09-09T05:54:20;17.00;99.90
19279;DHT22;9773;47.062;15.446;2022-09-09T05:56:45;17.10;99.90
19279;DHT22;9773;47.062;15.446;2022-09-09T05:59:11;17.10;99.90
19279;DHT22;9773;47.062;15.446;2022-09-09T06:01:38;17.20;99.90
19279;DHT22;9773;47.062;15.446;2022-09-09T06:04:06;17.30;99.90
19279;DHT22;9773;47.062;15.446;2022-09-09T06:06:34;17.50;99.90
19279;DHT22;9773;47.062;15.446;2022-09-09T06:09:03;17.60;99.90
19279;DHT22;9773;47.062;15.446;2022-09-09T06:11:32;17.60;99.90
19279;DHT22;9773;47.062;15.446;2022-09-09T06:13:58;17.50;99.90
19279;DHT22;9773;47.062;15.446;2022-09-09T06:16:26;17.50;99.90
19279;DHT22;9773;47.062;15.446;2022-09-09T06:18:53;17.50;99.90
19279;DHT22;9773;47.062;15.446;2022-09-09T06:21:25;17.50;99.90
19279;DHT22;9773;47.062;15.446;2022-09-09T06:23:51;17.50;99.90
19279;DHT22;9773;47.062;15.446;2022-09-09T06:26:30;17.50;99.90
19279;DHT22;9773;47.062;15.446;2022-09-09T06:28:56;17.60;99.90
19279;DHT22;9773;47.062;15.446;2022-09-09T06:31:25;17.50;99.90
19279;DHT22;9773;47.062;15.446;2022-09-09T06:33:52;17.60;99.90
19279;DHT22;9773;47.062;15.446;2022-09-09T06:36:25;17.80;99.90
19279;DHT22;9773;47.062;15.446;2022-09-09T06:38:51;17.90;99.90
19279;DHT22;9773;47.062;15.446;2022-09-09T06:41:19;18.00;99.90
19279;DHT22;9773;47.062;15.446;2022-09-09T06:43:45;18.10;99.90
19279;DHT22;9773;47.062;15.446;2022-09-09T06:46:12;18.20;99.90
19279;DHT22;9773;47.062;15.446;2022-09-09T06:48:39;18.30;99.90
19279;DHT22;9773;47.062;15.446;2022-09-09T06:53:38;18.50;99.90
19279;DHT22;9773;47.062;15.446;2022-09-09T06:58:42;18.60;99.90
19279;DHT22;9773;47.062;15.446;2022-09-09T07:01:11;18.60;99.90
19279;DHT22;9773;47.062;15.446;2022-09-09T07:03:41;18.60;99.90
19279;DHT22;9773;47.062;15.446;2022-09-09T07:06:14;18.60;99.90
19279;DHT22;9773;47.062;15.446;2022-09-09T07:08:42;18.50;99.90
19279;DHT22;9773;47.062;15.446;2022-09-09T07:11:09;18.60;99.90
19279;DHT22;9773;47.062;15.446;2022-09-09T07:13:35;18.60;99.90
19279;DHT22;9773;47.062;15.446;2022-09-09T07:16:05;18.60;99.90
19279;DHT22;9773;47.062;15.446;2022-09-09T07:18:31;18.70;99.90
19279;DHT22;9773;47.062;15.446;2022-09-09T07:20:57;18.70;99.90
19279;DHT22;9773;47.062;15.446;2022-09-09T07:23:23;18.70;99.90
19279;DHT22;9773;47.062;15.446;2022-09-09T07:25:50;18.80;99.90
19279;DHT22;9773;47.062;15.446;2022-09-09T07:28:16;18.80;99.90
19279;DHT22;9773;47.062;15.446;2022-09-09T07:30:42;18.80;99.90
19279;DHT22;9773;47.062;15.446;2022-09-09T07:33:09;18.80;99.90
19279;DHT22;9773;47.062;15.446;2022-09-09T07:35:35;18.90;99.90
19279;DHT22;9773;47.062;15.446;2022-09-09T07:38:08;18.90;99.90
19279;DHT22;9773;47.062;15.446;2022-09-09T07:40:35;18.90;99.90
19279;DHT22;9773;47.062;15.446;2022-09-09T07:43:03;19.00;99.90
19279;DHT22;9773;47.062;15.446;2022-09-09T07:45:28;19.00;99.90
19279;DHT22;9773;47.062;15.446;2022-09-09T07:47:55;19.00;99.90
19279;DHT22;9773;47.062;15.446;2022-09-09T07:50:23;19.10;99.90
19279;DHT22;9773;47.062;15.446;2022-09-09T07:52:54;19.10;99.90
19279;DHT22;9773;47.062;15.446;2022-09-09T07:55:21;19.10;99.90
19279;DHT22;9773;47.062;15.446;2022-09-09T07:57:47;19.10;99.90
19279;DHT22;9773;47.062;15.446;2022-09-09T08:00:13;19.00;99.90
19279;DHT22;9773;47.062;15.446;2022-09-09T08:02:40;18.90;99.90
19279;DHT22;9773;47.062;15.446;2022-09-09T08:05:07;19.00;99.90
19279;DHT22;9773;47.062;15.446;2022-09-09T08:07:35;19.00;99.90
19279;DHT22;9773;47.062;15.446;2022-09-09T08:10:02;19.00;99.90
19279;DHT22;9773;47.062;15.446;2022-09-09T08:12:28;19.00;99.90
19279;DHT22;9773;47.062;15.446;2022-09-09T08:14:54;18.90;99.90
19279;DHT22;9773;47.062;15.446;2022-09-09T08:17:20;18.80;99.90
19279;DHT22;9773;47.062;15.446;2022-09-09T08:19:45;18.90;99.90
19279;DHT22;9773;47.062;15.446;2022-09-09T08:22:11;18.90;99.90
19279;DHT22;9773;47.062;15.446;2022-09-09T08:24:37;18.80;99.90
19279;DHT22;9773;47.062;15.446;2022-09-09T08:27:03;18.90;99.90
19279;DHT22;9773;47.062;15.446;2022-09-09T08:29:28;19.00;99.90
19279;DHT22;9773;47.062;15.446;2022-09-09T08:31:56;19.00;99.90
19279;DHT22;9773;47.062;15.446;2022-09-09T08:34:24;19.10;99.90
19279;DHT22;9773;47.062;15.446;2022-09-09T08:36:51;19.10;99.90
19279;DHT22;9773;47.062;15.446;2022-09-09T08:39:19;19.10;99.90
19279;DHT22;9773;47.062;15.446;2022-09-09T08:44:37;19.20;99.90
19279;DHT22;9773;47.062;15.446;2022-09-09T08:57:58;19.20;99.90
19279;DHT22;9773;47.062;15.446;2022-09-09T09:03:24;19.40;99.90
19279;DHT22;9773;47.062;15.446;2022-09-09T09:07:13;19.50;99.90
19279;DHT22;9773;47.062;15.446;2022-09-09T09:09:31;19.60;99.90
19279;DHT22;9773;47.062;15.446;2022-09-09T09:12:01;19.50;99.90
19279;DHT22;9773;47.062;15.446;2022-09-09T09:14:33;19.60;99.90
19279;DHT22;9773;47.062;15.446;2022-09-09T09:17:06;19.50;99.90
19279;DHT22;9773;47.062;15.446;2022-09-09T09:19:35;19.70;99.90
19279;DHT22;9773;47.062;15.446;2022-09-09T09:22:22;19.80;99.90
19279;DHT22;9773;47.062;15.446;2022-09-09T09:25:05;19.80;99.90
19279;DHT22;9773;47.062;15.446;2022-09-09T09:30:26;20.40;99.90
19279;DHT22;9773;47.062;15.446;2022-09-09T09:35:29;20.90;99.90
19279;DHT22;9773;47.062;15.446;2022-09-09T09:37:54;21.00;99.90
19279;DHT22;9773;47.062;15.446;2022-09-09T09:40:21;21.00;99.90
19279;DHT22;9773;47.062;15.446;2022-09-09T09:43:01;21.00;99.90
19279;DHT22;9773;47.062;15.446;2022-09-09T09:45:32;21.10;99.90
19279;DHT22;9773;47.062;15.446;2022-09-09T09:48:05;21.10;99.90
19279;DHT22;9773;47.062;15.446;2022-09-09T09:50:32;21.00;99.90
19279;DHT22;9773;47.062;15.446;2022-09-09T09:53:20;21.00;99.90
19279;DHT22;9773;47.062;15.446;2022-09-09T09:56:01;21.10;99.90
19279;DHT22;9773;47.062;15.446;2022-09-09T09:58:30;21.30;99.90
19279;DHT22;9773;47.062;15.446;2022-09-09T10:00:58;21.30;99.90
19279;DHT22;9773;47.062;15.446;2022-09-09T10:03:32;21.30;99.90
19279;DHT22;9773;47.062;15.446;2022-09-09T10:06:04;21.30;99.90
19279;DHT22;9773;47.062;15.446;2022-09-09T10:08:44;21.20;99.90
19279;DHT22;9773;47.062;15.446;2022-09-09T10:11:26;21.20;99.90
19279;DHT22;9773;47.062;15.446;2022-09-09T10:19:30;21.10;99.90
19279;DHT22;9773;47.062;15.446;2022-09-09T10:22:11;21.20;99.90
19279;DHT22;9773;47.062;15.446;2022-09-09T10:27:46;21.40;99.90
19279;DHT22;9773;47.062;15.446;2022-09-09T10:33:07;21.90;99.90
19279;DHT22;9773;47.062;15.446;2022-09-09T10:35:49;22.00;99.90
19279;DHT22;9773;47.062;15.446;2022-09-09T10:38:42;22.00;99.90
19279;DHT22;9773;47.062;15.446;2022-09-09T10:41:19;22.30;99.90
19279;DHT22;9773;47.062;15.446;2022-09-09T10:46:57;22.40;99.90
19279;DHT22;9773;47.062;15.446;2022-09-09T10:49:32;22.50;99.90
19279;DHT22;9773;47.062;15.446;2022-09-09T10:55:16;22.60;99.90
19279;DHT22;9773;47.062;15.446;2022-09-09T10:57:52;22.70;99.90
19279;DHT22;9773;47.062;15.446;2022-09-09T11:00:38;22.70;99.90
19279;DHT22;9773;47.062;15.446;2022-09-09T11:03:04;22.80;99.90
19279;DHT22;9773;47.062;15.446;2022-09-09T11:06:15;22.70;99.90
19279;DHT22;9773;47.062;15.446;2022-09-09T11:08:37;22.60;99.90
19279;DHT22;9773;47.062;15.446;2022-09-09T11:11:12;22.60;99.90
19279;DHT22;9773;47.062;15.446;2022-09-09T11:13:44;22.60;99.90
19279;DHT22;9773;47.062;15.446;2022-09-09T11:18:48;22.40;99.90
19279;DHT22;9773;47.062;15.446;2022-09-09T11:21:23;22.30;99.90
19279;DHT22;9773;47.062;15.446;2022-09-09T11:24:02;22.30;99.90
19279;DHT22;9773;47.062;15.446;2022-09-09T11:26:38;22.30;99.90
19279;DHT22;9773;47.062;15.446;2022-09-09T11:37:42;22.30;99.90
19279;DHT22;9773;47.062;15.446;2022-09-09T11:40:18;22.40;99.90
19279;DHT22;9773;47.062;15.446;2022-09-09T11:42:45;22.50;99.90
19279;DHT22;9773;47.062;15.446;2022-09-09T11:45:33;22.40;99.90
19279;DHT22;9773;47.062;15.446;2022-09-09T11:48:02;22.20;99.90
19279;DHT22;9773;47.062;15.446;2022-09-09T11:50:35;22.10;99.90
19279;DHT22;9773;47.062;15.446;2022-09-09T11:53:20;22.00;99.90
19279;DHT22;9773;47.062;15.446;2022-09-09T11:56:12;21.80;99.90
19279;DHT22;9773;47.062;15.446;2022-09-09T11:58:44;21.90;99.90
19279;DHT22;9773;47.062;15.446;2022-09-09T12:04:32;22.30;99.90
19279;DHT22;9773;47.062;15.446;2022-09-09T12:07:01;22.40;99.90
19279;DHT22;9773;47.062;15.446;2022-09-09T12:17:20;22.60;99.90
19279;DHT22;9773;47.062;15.446;2022-09-09T12:19:48;22.60;99.90
19279;DHT22;9773;47.062;15.446;2022-09-09T12:24:58;22.40;99.90
19279;DHT22;9773;47.062;15.446;2022-09-09T12:27:36;22.40;99.90
19279;DHT22;9773;47.062;15.446;2022-09-09T12:30:11;22.40;99.90
19279;DHT22;9773;47.062;15.446;2022-09-09T12:32:37;22.50;99.90
19279;DHT22;9773;47.062;15.446;2022-09-09T12:35:22;22.50;99.90
19279;DHT22;9773;47.062;15.446;2022-09-09T12:37:57;22.60;99.90
19279;DHT22;9773;47.062;15.446;2022-09-09T12:40:27;22.60;99.90
19279;DHT22;9773;47.062;15.446;2022-09-09T12:42:53;22.70;99.90
19279;DHT22;9773;47.062;15.446;2022-09-09T12:45:25;22.60;99.90
19279;DHT22;9773;47.062;15.446;2022-09-09T12:47:56;22.60;99.90
19279;DHT22;9773;47.062;15.446;2022-09-09T12:50:24;22.60;99.90
19279;DHT22;9773;47.062;15.446;2022-09-09T12:52:57;22.60;99.90
19279;DHT22;9773;47.062;15.446;2022-09-09T12:55:30;22.60;99.90
19279;DHT22;9773;47.062;15.446;2022-09-09T12:57:57;22.60;99.90
19279;DHT22;9773;47.062;15.446;2022-09-09T13:00:25;22.50;99.90
19279;DHT22;9773;47.062;15.446;2022-09-09T13:03:13;22.50;99.90
19279;DHT22;9773;47.062;15.446;2022-09-09T13:05:41;22.30;99.90
19279;DHT22;9773;47.062;15.446;2022-09-09T13:08:15;22.30;99.90
19279;DHT22;9773;47.062;15.446;2022-09-09T13:11:00;22.20;99.90
19279;DHT22;9773;47.062;15.446;2022-09-09T13:13:40;22.20;99.90
19279;DHT22;9773;47.062;15.446;2022-09-09T13:16:22;22.20;99.90
19279;DHT22;9773;47.062;15.446;2022-09-09T13:18:48;22.20;99.90
19279;DHT22;9773;47.062;15.446;2022-09-09T13:21:14;22.00;99.90
19279;DHT22;9773;47.062;15.446;2022-09-09T13:23:40;21.90;99.90
19279;DHT22;9773;47.062;15.446;2022-09-09T13:26:26;21.80;99.90
19279;DHT22;9773;47.062;15.446;2022-09-09T13:29:09;21.70;99.90
19279;DHT22;9773;47.062;15.446;2022-09-09T13:31:44;21.70;99.90
19279;DHT22;9773;47.062;15.446;2022-09-09T13:34:39;21.60;99.90
19279;DHT22;9773;47.062;15.446;2022-09-09T13:37:33;21.70;99.90
19279;DHT22;9773;47.062;15.446;2022-09-09T13:40:00;21.70;99.90
19279;DHT22;9773;47.062;15.446;2022-09-09T13:42:29;21.90;99.90
19279;DHT22;9773;47.062;15.446;2022-09-09T13:44:58;21.70;99.90
19279;DHT22;9773;47.062;15.446;2022-09-09T13:47:35;21.60;99.90
19279;DHT22;9773;47.062;15.446;2022-09-09T13:52:53;21.40;99.90
19279;DHT22;9773;47.062;15.446;2022-09-09T13:55:21;21.30;99.90
19279;DHT22;9773;47.062;15.446;2022-09-09T13:58:00;21.20;99.90
19279;DHT22;9773;47.062;15.446;2022-09-09T14:00:28;21.20;99.90
19279;DHT22;9773;47.062;15.446;2022-09-09T14:02:55;21.10;99.90
19279;DHT22;9773;47.062;15.446;2022-09-09T14:05:21;21.10;99.90
19279;DHT22;9773;47.062;15.446;2022-09-09T14:07:48;21.00;99.90
19279;DHT22;9773;47.062;15.446;2022-09-09T14:10:15;21.00;99.90
19279;DHT22;9773;47.062;15.446;2022-09-09T14:12:40;20.90;99.90
19279;DHT22;9773;47.062;15.446;2022-09-09T14:15:09;21.00;99.90
19279;DHT22;9773;47.062;15.446;2022-09-09T14:17:35;20.90;99.90
19279;DHT22;9773;47.062;15.446;2022-09-09T14:20:03;20.90;99.90
19279;DHT22;9773;47.062;15.446;2022-09-09T14:22:31;20.90;99.90
19279;DHT22;9773;47.062;15.446;2022-09-09T14:24:56;20.90;99.90
19279;DHT22;9773;47.062;15.446;2022-09-09T14:27:23;20.90;99.90
19279;DHT22;9773;47.062;15.446;2022-09-09T14:29:48;20.90;99.90
19279;DHT22;9773;47.062;15.446;2022-09-09T14:32:14;20.90;99.90
19279;DHT22;9773;47.062;15.446;2022-09-09T14:34:41;21.00;99.90
19279;DHT22;9773;47.062;15.446;2022-09-09T14:37:07;21.10;99.90
19279;DHT22;9773;47.062;15.446;2022-09-09T14:39:33;21.10;99.90
19279;DHT22;9773;47.062;15.446;2022-09-09T14:41:58;21.00;99.90
19279;DHT22;9773;47.062;15.446;2022-09-09T14:44:24;20.90;99.90
19279;DHT22;9773;47.062;15.446;2022-09-09T14:46:50;20.90;99.90
19279;DHT22;9773;47.062;15.446;2022-09-09T14:49:16;20.90;99.90
19279;DHT22;9773;47.062;15.446;2022-09-09T14:51:42;20.80;99.90
19279;DHT22;9773;47.062;15.446;2022-09-09T14:54:07;20.80;99.90
19279;DHT22;9773;47.062;15.446;2022-09-09T14:56:34;20.80;99.90
19279;DHT22;9773;47.062;15.446;2022-09-09T14:59:00;20.70;99.90
19279;DHT22;9773;47.062;15.446;2022-09-09T15:01:28;20.50;99.90
19279;DHT22;9773;47.062;15.446;2022-09-09T15:04:02;20.40;99.90
19279;DHT22;9773;47.062;15.446;2022-09-09T15:06:32;20.40;99.90
19279;DHT22;9773;47.062;15.446;2022-09-09T15:08:59;20.30;99.90
19279;DHT22;9773;47.062;15.446;2022-09-09T15:11:30;20.30;99.90
19279;DHT22;9773;47.062;15.446;2022-09-09T15:13:57;20.20;99.90
19279;DHT22;9773;47.062;15.446;2022-09-09T15:16:26;20.20;99.90
19279;DHT22;9773;47.062;15.446;2022-09-09T15:18:53;20.10;99.90
19279;DHT22;9773;47.062;15.446;2022-09-09T15:21:22;20.00;99.90
19279;DHT22;9773;47.062;15.446;2022-09-09T15:23:48;20.10;99.90
19279;DHT22;9773;47.062;15.446;2022-09-09T15:26:15;20.00;99.90
19279;DHT22;9773;47.062;15.446;2022-09-09T15:28:42;19.90;99.90
19279;DHT22;9773;47.062;15.446;2022-09-09T15:31:17;19.80;99.90
19279;DHT22;9773;47.062;15.446;2022-09-09T15:33:51;19.70;99.90
19279;DHT22;9773;47.062;15.446;2022-09-09T15:36:23;19.60;99.90
19279;DHT22;9773;47.062;15.446;2022-09-09T15:38:50;19.70;99.90
19279;DHT22;9773;47.062;15.446;2022-09-09T15:41:17;19.80;99.90
19279;DHT22;9773;47.062;15.446;2022-09-09T15:43:48;19.80;99.90
19279;DHT22;9773;47.062;15.446;2022-09-09T15:51:28;19.60;99.90
19279;DHT22;9773;47.062;15.446;2022-09-09T15:53:56;19.60;99.90
19279;DHT22;9773;47.062;15.446;2022-09-09T15:56:22;19.50;99.90
19279;DHT22;9773;47.062;15.446;2022-09-09T15:58:48;19.40;99.90
19279;DHT22;9773;47.062;15.446;2022-09-09T16:01:14;19.50;99.90
19279;DHT22;9773;47.062;15.446;2022-09-09T16:03:42;19.60;99.90
19279;DHT22;9773;47.062;15.446;2022-09-09T16:06:09;19.70;99.90
19279;DHT22;9773;47.062;15.446;2022-09-09T16:08:42;19.70;99.90
19279;DHT22;9773;47.062;15.446;2022-09-09T16:11:16;19.80;99.90
19279;DHT22;9773;47.062;15.446;2022-09-09T16:13:43;19.90;99.90
19279;DHT22;9773;47.062;15.446;2022-09-09T16:16:14;20.00;99.90
19279;DHT22;9773;47.062;15.446;2022-09-09T16:18:42;20.00;99.90
19279;DHT22;9773;47.062;15.446;2022-09-09T16:21:13;20.00;99.90
19279;DHT22;9773;47.062;15.446;2022-09-09T16:23:39;20.00;99.90
19279;DHT22;9773;47.062;15.446;2022-09-09T16:26:05;19.90;99.90
19279;DHT22;9773;47.062;15.446;2022-09-09T16:28:31;19.80;99.90
19279;DHT22;9773;47.062;15.446;2022-09-09T16:30:57;19.70;99.90
19279;DHT22;9773;47.062;15.446;2022-09-09T16:33:24;19.70;99.90
19279;DHT22;9773;47.062;15.446;2022-09-09T16:35:51;19.70;99.90
19279;DHT22;9773;47.062;15.446;2022-09-09T16:38:16;19.60;99.90
19279;DHT22;9773;47.062;15.446;2022-09-09T16:40:42;19.60;99.90
19279;DHT22;9773;47.062;15.446;2022-09-09T16:43:08;19.60;99.90
19279;DHT22;9773;47.062;15.446;2022-09-09T16:45:42;19.60;99.90
19279;DHT22;9773;47.062;15.446;2022-09-09T16:48:09;19.60;99.90
19279;DHT22;9773;47.062;15.446;2022-09-09T16:50:36;19.60;99.90
19279;DHT22;9773;47.062;15.446;2022-09-09T16:53:03;19.60;99.90
19279;DHT22;9773;47.062;15.446;2022-09-09T16:55:32;19.60;99.90
19279;DHT22;9773;47.062;15.446;2022-09-09T16:57:58;19.60;99.90
19279;DHT22;9773;47.062;15.446;2022-09-09T17:00:23;19.50;99.90
19279;DHT22;9773;47.062;15.446;2022-09-09T17:02:49;19.40;99.90
19279;DHT22;9773;47.062;15.446;2022-09-09T17:05:15;19.30;99.90
19279;DHT22;9773;47.062;15.446;2022-09-09T17:07:40;19.30;99.90
19279;DHT22;9773;47.062;15.446;2022-09-09T17:10:07;19.30;99.90
19279;DHT22;9773;47.062;15.446;2022-09-09T17:12:33;19.30;99.90
19279;DHT22;9773;47.062;15.446;2022-09-09T17:15:01;19.20;99.90
19279;DHT22;9773;47.062;15.446;2022-09-09T17:17:28;19.20;99.90
19279;DHT22;9773;47.062;15.446;2022-09-09T17:19:54;19.20;99.90
19279;DHT22;9773;47.062;15.446;2022-09-09T17:22:20;19.20;99.90
19279;DHT22;9773;47.062;15.446;2022-09-09T17:24:46;19.20;99.90
19279;DHT22;9773;47.062;15.446;2022-09-09T17:27:12;19.20;99.90
19279;DHT22;9773;47.062;15.446;2022-09-09T17:29:38;19.20;99.90
19279;DHT22;9773;47.062;15.446;2022-09-09T17:32:05;19.10;99.90
19279;DHT22;9773;47.062;15.446;2022-09-09T17:34:36;19.10;99.90
19279;DHT22;9773;47.062;15.446;2022-09-09T17:37:01;19.00;99.90
19279;DHT22;9773;47.062;15.446;2022-09-09T17:39:28;18.90;99.90
19279;DHT22;9773;47.062;15.446;2022-09-09T17:41:53;18.90;99.90